New Carlisle, IN

7:34 PM EDT on April 27, 2015 (GMT -0400)
South Bend Regional | | Change Station
CLOSE
Current Station
Airport
Location: South Bend,
Elevation: 774 ft
Nearby Weather Stations
Active Advisory: Frost Advisory

Elev 774 ft 41.71 °N, 86.32 °W | Updated 40 minutes ago

Clear
Clear
52 °F
Feels Like 52 °F
N
13
Wind Variable Wind from North

Today
High -- | Low -- °F
--% Chance of Precip.
Yesterday
High -- | Low -- °F
Precip. -- in
6:48 AM 8:39 PM
Waxing Gibbous, 68% visible
Pressure 30.09 in
Visibility 10.0 miles
Clouds Clear
Dew Point 34 °F
Humidity 50%
Rainfall 0.00 in
Snow Depth Not available.
UV 1 out of 12
Pollen 10.30 out of 12
Air Quality Not available.
Flu Activity Local Activity
METAR KSBN 272254Z 35011KT 10SM CLR 11/01 A3009

More Conditions Fewer Conditions

Pressure 30.09 in
Visibility 10.0 miles
Clouds Clear
Dew Point 34 °F
Humidity 50%
Rainfall 0.00 in
Snow Depth Not available.
UV 1 out of 12
Pollen 10.30 out of 12
Air Quality Not available.
Flu Activity Local Activity
METAR KSBN 272254Z 35011KT 10SM CLR 11/01 A3009

More Conditions Fewer Conditions

10-Day Weather Forecast

Almanac

Astronomy

Apr. 27, 2015 Rise Set
Actual Time
Civil Twilight
Nautical Twilight
Astronomical Twilight
Moon
Length of Visible Light
Length of Day
Tomorrow will be .
, % of the Moon is Illuminated

Today's Extremes

State Highs State Lows

Community

WunderPhotos

Upload Photos

1,817,473 photos uploaded!

WunderBlogs® & News

Nearby

Air Quality

  Air Quality AQ Index Pollutant
Not available.

Snow Depth

Station Depth Elevation

Earthquake Activity

City Distance Mag. Time & Date
Minimum magnitude displayed is 2.5.

Coastal Water Temperatures

Place Temperature

Stations

Nearby Weather Stations

Station Location Temp. Windchill Dew Point Humidity Wind Precip. Elev Updated Type
                   
Frost Advisory
Statement as of 2:50 PM CDT on April 27, 2015

... Frost advisory in effect from 2 am EDT /1 am CDT/ to 9 am EDT
/8 am CDT/ Tuesday...

The National Weather Service in northern Indiana has issued a
frost advisory... which is in effect from 2 am EDT /1 am CDT/ to
9 am EDT /8 am CDT/ Tuesday.

Hazardous weather...

* temperatures will drop into the low to mid 30s tonight.

* Frost formation is likely once skies clear and winds diminish.

Impacts...

* sensitive vegetation will be killed if not protected.

Precautionary/preparedness actions...

A frost advisory means that frost is possible. Sensitive outdoor
plants may be killed if left uncovered.